sensor_id;sensor_type;location;lat;lon;timestamp;P1;durP1;ratioP1;P2;durP2;ratioP2
39020;SDS011;25188;51.958;5.842;2024-01-15T00:01:14;3.03;;;0.50;;
39020;SDS011;25188;51.958;5.842;2024-01-15T00:03:39;2.67;;;0.67;;
39020;SDS011;25188;51.958;5.842;2024-01-15T00:06:05;5.53;;;0.87;;
39020;SDS011;25188;51.958;5.842;2024-01-15T00:08:31;5.37;;;0.70;;
39020;SDS011;25188;51.958;5.842;2024-01-15T00:10:56;5.00;;;0.60;;
39020;SDS011;25188;51.958;5.842;2024-01-15T00:13:22;7.17;;;1.07;;
39020;SDS011;25188;51.958;5.842;2024-01-15T00:15:47;9.03;;;0.80;;
39020;SDS011;25188;51.958;5.842;2024-01-15T00:18:13;6.73;;;0.70;;
39020;SDS011;25188;51.958;5.842;2024-01-15T00:20:39;8.13;;;0.80;;
39020;SDS011;25188;51.958;5.842;2024-01-15T00:23:04;11.07;;;0.90;;
39020;SDS011;25188;51.958;5.842;2024-01-15T00:25:30;8.17;;;0.73;;
39020;SDS011;25188;51.958;5.842;2024-01-15T00:27:56;8.00;;;0.93;;
39020;SDS011;25188;51.958;5.842;2024-01-15T00:30:21;8.17;;;0.90;;
39020;SDS011;25188;51.958;5.842;2024-01-15T00:32:47;10.43;;;0.70;;
39020;SDS011;25188;51.958;5.842;2024-01-15T00:35:12;10.73;;;0.90;;
39020;SDS011;25188;51.958;5.842;2024-01-15T00:37:38;3.77;;;0.67;;
39020;SDS011;25188;51.958;5.842;2024-01-15T00:40:05;4.63;;;0.53;;
39020;SDS011;25188;51.958;5.842;2024-01-15T00:42:31;5.60;;;0.77;;
39020;SDS011;25188;51.958;5.842;2024-01-15T00:44:56;8.07;;;1.00;;
39020;SDS011;25188;51.958;5.842;2024-01-15T00:47:22;3.37;;;0.70;;
39020;SDS011;25188;51.958;5.842;2024-01-15T00:49:47;7.80;;;1.00;;
39020;SDS011;25188;51.958;5.842;2024-01-15T00:52:13;6.53;;;1.03;;
39020;SDS011;25188;51.958;5.842;2024-01-15T00:54:39;8.23;;;0.57;;
39020;SDS011;25188;51.958;5.842;2024-01-15T00:57:05;5.97;;;0.70;;
39020;SDS011;25188;51.958;5.842;2024-01-15T00:59:30;10.97;;;0.83;;
39020;SDS011;25188;51.958;5.842;2024-01-15T01:01:56;7.07;;;0.80;;
39020;SDS011;25188;51.958;5.842;2024-01-15T01:04:21;5.47;;;0.70;;
39020;SDS011;25188;51.958;5.842;2024-01-15T01:06:47;8.77;;;0.87;;
39020;SDS011;25188;51.958;5.842;2024-01-15T01:09:13;9.57;;;0.60;;
39020;SDS011;25188;51.958;5.842;2024-01-15T01:11:38;5.87;;;0.90;;
39020;SDS011;25188;51.958;5.842;2024-01-15T01:14:04;5.23;;;0.70;;
39020;SDS011;25188;51.958;5.842;2024-01-15T01:16:30;12.33;;;2.00;;
39020;SDS011;25188;51.958;5.842;2024-01-15T01:18:56;9.37;;;1.20;;
39020;SDS011;25188;51.958;5.842;2024-01-15T01:21:22;12.00;;;1.30;;
39020;SDS011;25188;51.958;5.842;2024-01-15T01:23:47;6.33;;;0.77;;
39020;SDS011;25188;51.958;5.842;2024-01-15T01:26:16;8.37;;;1.00;;
39020;SDS011;25188;51.958;5.842;2024-01-15T01:28:42;10.10;;;0.90;;
39020;SDS011;25188;51.958;5.842;2024-01-15T01:31:08;7.90;;;1.07;;
39020;SDS011;25188;51.958;5.842;2024-01-15T01:33:34;9.27;;;0.97;;
39020;SDS011;25188;51.958;5.842;2024-01-15T01:35:59;5.23;;;0.90;;
39020;SDS011;25188;51.958;5.842;2024-01-15T01:38:25;8.17;;;1.37;;
39020;SDS011;25188;51.958;5.842;2024-01-15T01:40:50;5.40;;;0.80;;
39020;SDS011;25188;51.958;5.842;2024-01-15T01:43:16;4.63;;;0.70;;
39020;SDS011;25188;51.958;5.842;2024-01-15T01:45:42;7.87;;;1.00;;
39020;SDS011;25188;51.958;5.842;2024-01-15T01:48:07;10.50;;;0.90;;
39020;SDS011;25188;51.958;5.842;2024-01-15T01:50:33;7.97;;;1.10;;
39020;SDS011;25188;51.958;5.842;2024-01-15T01:52:59;8.27;;;1.00;;
39020;SDS011;25188;51.958;5.842;2024-01-15T01:55:26;6.93;;;1.03;;
39020;SDS011;25188;51.958;5.842;2024-01-15T01:57:54;7.33;;;0.90;;
39020;SDS011;25188;51.958;5.842;2024-01-15T02:00:20;6.87;;;1.70;;
39020;SDS011;25188;51.958;5.842;2024-01-15T02:02:46;12.83;;;1.67;;
39020;SDS011;25188;51.958;5.842;2024-01-15T02:05:12;14.33;;;1.23;;
39020;SDS011;25188;51.958;5.842;2024-01-15T02:07:43;8.27;;;1.17;;
39020;SDS011;25188;51.958;5.842;2024-01-15T02:10:09;13.43;;;1.10;;
39020;SDS011;25188;51.958;5.842;2024-01-15T02:12:35;12.67;;;0.90;;
39020;SDS011;25188;51.958;5.842;2024-01-15T02:15:01;6.27;;;1.10;;
39020;SDS011;25188;51.958;5.842;2024-01-15T02:17:27;6.73;;;0.90;;
39020;SDS011;25188;51.958;5.842;2024-01-15T02:19:52;5.20;;;1.10;;
39020;SDS011;25188;51.958;5.842;2024-01-15T02:22:18;11.67;;;1.17;;
39020;SDS011;25188;51.958;5.842;2024-01-15T02:24:43;5.37;;;0.80;;
39020;SDS011;25188;51.958;5.842;2024-01-15T02:27:09;13.03;;;1.00;;
39020;SDS011;25188;51.958;5.842;2024-01-15T02:29:35;10.27;;;1.40;;
39020;SDS011;25188;51.958;5.842;2024-01-15T02:32:04;8.40;;;1.97;;
39020;SDS011;25188;51.958;5.842;2024-01-15T02:34:33;14.80;;;1.53;;
39020;SDS011;25188;51.958;5.842;2024-01-15T02:36:59;10.23;;;1.10;;
39020;SDS011;25188;51.958;5.842;2024-01-15T02:39:25;6.23;;;0.70;;
39020;SDS011;25188;51.958;5.842;2024-01-15T02:41:51;18.87;;;1.13;;
39020;SDS011;25188;51.958;5.842;2024-01-15T02:44:16;12.50;;;2.40;;
39020;SDS011;25188;51.958;5.842;2024-01-15T02:46:42;5.80;;;0.80;;
39020;SDS011;25188;51.958;5.842;2024-01-15T02:49:07;14.57;;;1.10;;
39020;SDS011;25188;51.958;5.842;2024-01-15T02:51:33;15.30;;;1.13;;
39020;SDS011;25188;51.958;5.842;2024-01-15T02:53:59;10.03;;;0.97;;
39020;SDS011;25188;51.958;5.842;2024-01-15T02:56:24;8.83;;;1.50;;
39020;SDS011;25188;51.958;5.842;2024-01-15T02:58:50;13.30;;;0.93;;
39020;SDS011;25188;51.958;5.842;2024-01-15T03:01:18;10.40;;;1.30;;
39020;SDS011;25188;51.958;5.842;2024-01-15T03:03:44;13.97;;;1.30;;
39020;SDS011;25188;51.958;5.842;2024-01-15T03:06:10;16.13;;;1.00;;
39020;SDS011;25188;51.958;5.842;2024-01-15T03:08:36;9.57;;;1.00;;
39020;SDS011;25188;51.958;5.842;2024-01-15T03:11:01;10.57;;;1.37;;
39020;SDS011;25188;51.958;5.842;2024-01-15T03:13:27;5.53;;;1.23;;
39020;SDS011;25188;51.958;5.842;2024-01-15T03:15:52;6.30;;;0.70;;
39020;SDS011;25188;51.958;5.842;2024-01-15T03:18:18;11.40;;;2.77;;
39020;SDS011;25188;51.958;5.842;2024-01-15T03:20:44;11.53;;;1.10;;
39020;SDS011;25188;51.958;5.842;2024-01-15T03:23:09;6.03;;;0.80;;
39020;SDS011;25188;51.958;5.842;2024-01-15T03:25:35;7.10;;;0.93;;
39020;SDS011;25188;51.958;5.842;2024-01-15T03:28:01;7.70;;;0.93;;
39020;SDS011;25188;51.958;5.842;2024-01-15T03:30:26;9.87;;;0.80;;
39020;SDS011;25188;51.958;5.842;2024-01-15T03:32:52;8.43;;;1.63;;
39020;SDS011;25188;51.958;5.842;2024-01-15T03:35:18;7.80;;;0.70;;
39020;SDS011;25188;51.958;5.842;2024-01-15T03:37:43;6.77;;;0.70;;
39020;SDS011;25188;51.958;5.842;2024-01-15T03:40:09;6.23;;;0.80;;
39020;SDS011;25188;51.958;5.842;2024-01-15T03:42:35;7.63;;;0.90;;
39020;SDS011;25188;51.958;5.842;2024-01-15T03:45:01;9.27;;;0.67;;
39020;SDS011;25188;51.958;5.842;2024-01-15T03:47:26;7.37;;;0.60;;
39020;SDS011;25188;51.958;5.842;2024-01-15T03:49:52;6.30;;;0.70;;
39020;SDS011;25188;51.958;5.842;2024-01-15T03:52:18;6.07;;;0.70;;
39020;SDS011;25188;51.958;5.842;2024-01-15T03:54:43;9.37;;;1.40;;
39020;SDS011;25188;51.958;5.842;2024-01-15T03:57:09;5.27;;;0.60;;
39020;SDS011;25188;51.958;5.842;2024-01-15T03:59:34;7.30;;;0.73;;
39020;SDS011;25188;51.958;5.842;2024-01-15T04:02:00;4.07;;;0.67;;
39020;SDS011;25188;51.958;5.842;2024-01-15T04:04:26;5.77;;;0.60;;
39020;SDS011;25188;51.958;5.842;2024-01-15T04:06:51;9.33;;;1.13;;
39020;SDS011;25188;51.958;5.842;2024-01-15T04:09:17;12.80;;;1.10;;
39020;SDS011;25188;51.958;5.842;2024-01-15T04:11:42;6.27;;;0.60;;
39020;SDS011;25188;51.958;5.842;2024-01-15T04:14:08;9.37;;;0.80;;
39020;SDS011;25188;51.958;5.842;2024-01-15T04:16:34;4.23;;;0.57;;
39020;SDS011;25188;51.958;5.842;2024-01-15T04:18:59;5.90;;;0.87;;
39020;SDS011;25188;51.958;5.842;2024-01-15T04:21:25;6.77;;;0.97;;
39020;SDS011;25188;51.958;5.842;2024-01-15T04:23:50;9.53;;;1.00;;
39020;SDS011;25188;51.958;5.842;2024-01-15T04:26:16;7.00;;;0.80;;
39020;SDS011;25188;51.958;5.842;2024-01-15T04:28:42;12.60;;;1.10;;
39020;SDS011;25188;51.958;5.842;2024-01-15T04:31:07;4.87;;;0.70;;
39020;SDS011;25188;51.958;5.842;2024-01-15T04:33:33;9.37;;;1.20;;
39020;SDS011;25188;51.958;5.842;2024-01-15T04:36:01;10.73;;;0.97;;
39020;SDS011;25188;51.958;5.842;2024-01-15T04:38:30;15.97;;;1.33;;
39020;SDS011;25188;51.958;5.842;2024-01-15T04:40:57;10.73;;;0.93;;
39020;SDS011;25188;51.958;5.842;2024-01-15T04:43:23;11.50;;;1.20;;
39020;SDS011;25188;51.958;5.842;2024-01-15T04:45:48;6.47;;;0.77;;
39020;SDS011;25188;51.958;5.842;2024-01-15T04:48:14;10.33;;;1.30;;
39020;SDS011;25188;51.958;5.842;2024-01-15T04:50:39;7.30;;;0.60;;
39020;SDS011;25188;51.958;5.842;2024-01-15T04:53:05;11.53;;;1.70;;
39020;SDS011;25188;51.958;5.842;2024-01-15T04:55:31;8.17;;;1.00;;
39020;SDS011;25188;51.958;5.842;2024-01-15T04:57:56;7.13;;;0.80;;
39020;SDS011;25188;51.958;5.842;2024-01-15T05:00:22;12.57;;;2.33;;
39020;SDS011;25188;51.958;5.842;2024-01-15T05:02:47;11.07;;;0.80;;
39020;SDS011;25188;51.958;5.842;2024-01-15T05:05:13;8.83;;;1.13;;
39020;SDS011;25188;51.958;5.842;2024-01-15T05:07:39;7.57;;;1.00;;
39020;SDS011;25188;51.958;5.842;2024-01-15T05:10:04;7.50;;;1.10;;
39020;SDS011;25188;51.958;5.842;2024-01-15T05:12:32;6.87;;;0.77;;
39020;SDS011;25188;51.958;5.842;2024-01-15T05:14:57;8.17;;;0.90;;
39020;SDS011;25188;51.958;5.842;2024-01-15T05:17:23;6.87;;;0.97;;
39020;SDS011;25188;51.958;5.842;2024-01-15T05:19:49;11.03;;;1.03;;
39020;SDS011;25188;51.958;5.842;2024-01-15T05:22:14;4.23;;;0.70;;
39020;SDS011;25188;51.958;5.842;2024-01-15T05:24:40;11.93;;;0.93;;
39020;SDS011;25188;51.958;5.842;2024-01-15T05:27:05;7.50;;;0.80;;
39020;SDS011;25188;51.958;5.842;2024-01-15T05:29:31;6.37;;;0.90;;
39020;SDS011;25188;51.958;5.842;2024-01-15T05:31:57;10.27;;;1.40;;
39020;SDS011;25188;51.958;5.842;2024-01-15T05:34:22;10.53;;;1.17;;
39020;SDS011;25188;51.958;5.842;2024-01-15T05:36:48;6.37;;;0.77;;
39020;SDS011;25188;51.958;5.842;2024-01-15T05:39:13;12.27;;;1.67;;
39020;SDS011;25188;51.958;5.842;2024-01-15T05:41:39;5.30;;;1.23;;
39020;SDS011;25188;51.958;5.842;2024-01-15T05:44:05;6.53;;;0.70;;
39020;SDS011;25188;51.958;5.842;2024-01-15T05:46:30;8.37;;;1.10;;
39020;SDS011;25188;51.958;5.842;2024-01-15T05:48:56;3.13;;;0.50;;
39020;SDS011;25188;51.958;5.842;2024-01-15T05:51:22;6.57;;;1.03;;
39020;SDS011;25188;51.958;5.842;2024-01-15T05:53:47;5.53;;;0.80;;
39020;SDS011;25188;51.958;5.842;2024-01-15T05:56:13;6.83;;;0.63;;
39020;SDS011;25188;51.958;5.842;2024-01-15T05:58:38;5.63;;;0.77;;
39020;SDS011;25188;51.958;5.842;2024-01-15T06:01:04;11.37;;;1.10;;
39020;SDS011;25188;51.958;5.842;2024-01-15T06:03:29;8.87;;;0.97;;
39020;SDS011;25188;51.958;5.842;2024-01-15T06:05:55;5.83;;;0.97;;
39020;SDS011;25188;51.958;5.842;2024-01-15T06:08:21;9.63;;;0.83;;
39020;SDS011;25188;51.958;5.842;2024-01-15T06:10:46;7.80;;;0.80;;
39020;SDS011;25188;51.958;5.842;2024-01-15T06:13:12;5.17;;;0.80;;
39020;SDS011;25188;51.958;5.842;2024-01-15T06:15:38;5.73;;;1.13;;
39020;SDS011;25188;51.958;5.842;2024-01-15T06:18:04;6.83;;;1.37;;
39020;SDS011;25188;51.958;5.842;2024-01-15T06:20:30;4.20;;;0.70;;
39020;SDS011;25188;51.958;5.842;2024-01-15T06:22:55;7.70;;;1.60;;
39020;SDS011;25188;51.958;5.842;2024-01-15T06:25:21;3.40;;;0.60;;
39020;SDS011;25188;51.958;5.842;2024-01-15T06:27:47;2.33;;;0.60;;
39020;SDS011;25188;51.958;5.842;2024-01-15T06:30:12;2.97;;;0.57;;
39020;SDS011;25188;51.958;5.842;2024-01-15T06:32:38;4.53;;;0.77;;
39020;SDS011;25188;51.958;5.842;2024-01-15T06:35:04;5.97;;;1.23;;
39020;SDS011;25188;51.958;5.842;2024-01-15T06:37:30;3.87;;;1.50;;
39020;SDS011;25188;51.958;5.842;2024-01-15T06:39:57;7.07;;;1.87;;
39020;SDS011;25188;51.958;5.842;2024-01-15T06:42:23;7.53;;;2.60;;
39020;SDS011;25188;51.958;5.842;2024-01-15T06:44:49;7.07;;;2.10;;
39020;SDS011;25188;51.958;5.842;2024-01-15T06:47:15;8.50;;;2.90;;
39020;SDS011;25188;51.958;5.842;2024-01-15T06:49:42;9.57;;;3.30;;
39020;SDS011;25188;51.958;5.842;2024-01-15T06:52:08;5.67;;;2.63;;
39020;SDS011;25188;51.958;5.842;2024-01-15T06:54:34;8.33;;;3.50;;
39020;SDS011;25188;51.958;5.842;2024-01-15T06:56:59;8.07;;;3.50;;
39020;SDS011;25188;51.958;5.842;2024-01-15T06:59:25;10.43;;;3.60;;
39020;SDS011;25188;51.958;5.842;2024-01-15T07:01:50;8.87;;;4.50;;
39020;SDS011;25188;51.958;5.842;2024-01-15T07:04:16;10.73;;;5.10;;
39020;SDS011;25188;51.958;5.842;2024-01-15T07:06:42;12.73;;;5.00;;
39020;SDS011;25188;51.958;5.842;2024-01-15T07:09:07;12.40;;;5.60;;
39020;SDS011;25188;51.958;5.842;2024-01-15T07:11:34;10.70;;;5.13;;
39020;SDS011;25188;51.958;5.842;2024-01-15T07:13:59;13.60;;;5.73;;
39020;SDS011;25188;51.958;5.842;2024-01-15T07:16:25;9.20;;;4.80;;
39020;SDS011;25188;51.958;5.842;2024-01-15T07:18:50;11.03;;;6.13;;
39020;SDS011;25188;51.958;5.842;2024-01-15T07:21:16;11.20;;;6.17;;
39020;SDS011;25188;51.958;5.842;2024-01-15T07:23:42;12.57;;;6.27;;
39020;SDS011;25188;51.958;5.842;2024-01-15T07:26:07;12.87;;;6.60;;
39020;SDS011;25188;51.958;5.842;2024-01-15T07:28:33;14.57;;;7.20;;
39020;SDS011;25188;51.958;5.842;2024-01-15T07:30:58;10.10;;;6.07;;
39020;SDS011;25188;51.958;5.842;2024-01-15T07:33:26;13.07;;;6.67;;
39020;SDS011;25188;51.958;5.842;2024-01-15T07:35:52;12.67;;;6.47;;
39020;SDS011;25188;51.958;5.842;2024-01-15T07:38:17;11.07;;;6.63;;
39020;SDS011;25188;51.958;5.842;2024-01-15T07:40:43;10.33;;;5.93;;
39020;SDS011;25188;51.958;5.842;2024-01-15T07:43:09;11.50;;;6.73;;
39020;SDS011;25188;51.958;5.842;2024-01-15T07:45:35;12.50;;;6.77;;
39020;SDS011;25188;51.958;5.842;2024-01-15T07:48:00;12.57;;;6.80;;
39020;SDS011;25188;51.958;5.842;2024-01-15T07:50:26;12.03;;;5.60;;
39020;SDS011;25188;51.958;5.842;2024-01-15T07:52:53;9.60;;;5.43;;
39020;SDS011;25188;51.958;5.842;2024-01-15T07:55:18;10.47;;;5.70;;
39020;SDS011;25188;51.958;5.842;2024-01-15T07:57:44;10.87;;;5.07;;
39020;SDS011;25188;51.958;5.842;2024-01-15T08:00:09;8.67;;;4.90;;
39020;SDS011;25188;51.958;5.842;2024-01-15T08:02:35;7.43;;;4.13;;
39020;SDS011;25188;51.958;5.842;2024-01-15T08:05:01;7.97;;;4.30;;
39020;SDS011;25188;51.958;5.842;2024-01-15T08:07:28;7.53;;;4.00;;
39020;SDS011;25188;51.958;5.842;2024-01-15T08:09:53;6.33;;;3.23;;
39020;SDS011;25188;51.958;5.842;2024-01-15T08:12:19;8.80;;;4.07;;
39020;SDS011;25188;51.958;5.842;2024-01-15T08:14:45;6.33;;;2.80;;
39020;SDS011;25188;51.958;5.842;2024-01-15T08:17:10;6.13;;;2.73;;
39020;SDS011;25188;51.958;5.842;2024-01-15T08:19:36;6.47;;;2.13;;
39020;SDS011;25188;51.958;5.842;2024-01-15T08:22:02;5.37;;;2.30;;
39020;SDS011;25188;51.958;5.842;2024-01-15T08:24:28;4.70;;;2.37;;
39020;SDS011;25188;51.958;5.842;2024-01-15T08:26:53;5.53;;;2.20;;
39020;SDS011;25188;51.958;5.842;2024-01-15T08:29:21;5.07;;;1.73;;
39020;SDS011;25188;51.958;5.842;2024-01-15T08:31:46;4.73;;;2.20;;
39020;SDS011;25188;51.958;5.842;2024-01-15T08:34:12;5.33;;;1.97;;
39020;SDS011;25188;51.958;5.842;2024-01-15T08:36:38;4.83;;;1.60;;
39020;SDS011;25188;51.958;5.842;2024-01-15T08:39:03;7.00;;;2.43;;
39020;SDS011;25188;51.958;5.842;2024-01-15T08:41:30;6.70;;;2.60;;
39020;SDS011;25188;51.958;5.842;2024-01-15T08:43:57;6.30;;;2.50;;
39020;SDS011;25188;51.958;5.842;2024-01-15T08:46:22;7.67;;;2.67;;
39020;SDS011;25188;51.958;5.842;2024-01-15T08:48:49;9.83;;;2.07;;
39020;SDS011;25188;51.958;5.842;2024-01-15T08:51:15;5.90;;;2.37;;
39020;SDS011;25188;51.958;5.842;2024-01-15T08:53:40;7.87;;;2.60;;
39020;SDS011;25188;51.958;5.842;2024-01-15T08:56:06;4.77;;;1.70;;
39020;SDS011;25188;51.958;5.842;2024-01-15T08:58:33;5.77;;;1.93;;
39020;SDS011;25188;51.958;5.842;2024-01-15T09:00:59;4.23;;;1.80;;
39020;SDS011;25188;51.958;5.842;2024-01-15T09:03:25;6.93;;;1.90;;
39020;SDS011;25188;51.958;5.842;2024-01-15T09:05:50;7.90;;;2.47;;
39020;SDS011;25188;51.958;5.842;2024-01-15T09:08:16;10.10;;;2.43;;
39020;SDS011;25188;51.958;5.842;2024-01-15T09:10:42;7.93;;;2.20;;
39020;SDS011;25188;51.958;5.842;2024-01-15T09:13:07;6.97;;;2.30;;
39020;SDS011;25188;51.958;5.842;2024-01-15T09:15:33;6.93;;;2.43;;
39020;SDS011;25188;51.958;5.842;2024-01-15T09:17:59;8.03;;;2.73;;
39020;SDS011;25188;51.958;5.842;2024-01-15T09:20:27;6.33;;;2.70;;
39020;SDS011;25188;51.958;5.842;2024-01-15T09:22:53;8.93;;;2.57;;
39020;SDS011;25188;51.958;5.842;2024-01-15T09:25:19;7.97;;;3.00;;
39020;SDS011;25188;51.958;5.842;2024-01-15T09:27:44;12.23;;;3.10;;
39020;SDS011;25188;51.958;5.842;2024-01-15T09:30:10;9.50;;;2.60;;
39020;SDS011;25188;51.958;5.842;2024-01-15T09:32:36;9.50;;;2.27;;
39020;SDS011;25188;51.958;5.842;2024-01-15T09:35:02;10.87;;;2.27;;
39020;SDS011;25188;51.958;5.842;2024-01-15T09:37:27;7.27;;;1.90;;
39020;SDS011;25188;51.958;5.842;2024-01-15T09:39:53;7.50;;;1.40;;
39020;SDS011;25188;51.958;5.842;2024-01-15T09:42:20;8.80;;;1.67;;
39020;SDS011;25188;51.958;5.842;2024-01-15T09:44:48;3.90;;;0.93;;
39020;SDS011;25188;51.958;5.842;2024-01-15T09:47:14;4.27;;;1.13;;
39020;SDS011;25188;51.958;5.842;2024-01-15T09:49:41;5.03;;;1.10;;
39020;SDS011;25188;51.958;5.842;2024-01-15T09:52:07;4.10;;;0.70;;
39020;SDS011;25188;51.958;5.842;2024-01-15T09:54:33;3.83;;;0.80;;
39020;SDS011;25188;51.958;5.842;2024-01-15T09:56:59;4.73;;;0.70;;
39020;SDS011;25188;51.958;5.842;2024-01-15T09:59:26;2.67;;;0.70;;
39020;SDS011;25188;51.958;5.842;2024-01-15T10:01:53;2.17;;;0.50;;
39020;SDS011;25188;51.958;5.842;2024-01-15T10:04:20;5.87;;;0.60;;
39020;SDS011;25188;51.958;5.842;2024-01-15T10:06:46;3.33;;;0.60;;
39020;SDS011;25188;51.958;5.842;2024-01-15T10:09:15;3.00;;;0.70;;
39020;SDS011;25188;51.958;5.842;2024-01-15T10:11:43;3.80;;;0.60;;
39020;SDS011;25188;51.958;5.842;2024-01-15T10:14:10;4.33;;;0.50;;
39020;SDS011;25188;51.958;5.842;2024-01-15T10:16:39;2.90;;;0.50;;
39020;SDS011;25188;51.958;5.842;2024-01-15T10:19:05;1.80;;;0.53;;
39020;SDS011;25188;51.958;5.842;2024-01-15T10:21:34;2.57;;;0.50;;
39020;SDS011;25188;51.958;5.842;2024-01-15T10:24:01;5.13;;;0.50;;
39020;SDS011;25188;51.958;5.842;2024-01-15T10:26:30;3.47;;;1.33;;
39020;SDS011;25188;51.958;5.842;2024-01-15T10:29:00;6.30;;;0.90;;
39020;SDS011;25188;51.958;5.842;2024-01-15T10:31:26;5.07;;;0.70;;
39020;SDS011;25188;51.958;5.842;2024-01-15T10:33:52;2.70;;;0.60;;
39020;SDS011;25188;51.958;5.842;2024-01-15T10:36:18;5.37;;;1.00;;
39020;SDS011;25188;51.958;5.842;2024-01-15T10:38:44;5.47;;;1.37;;
39020;SDS011;25188;51.958;5.842;2024-01-15T10:41:11;7.10;;;1.33;;
39020;SDS011;25188;51.958;5.842;2024-01-15T10:43:37;7.07;;;1.93;;
39020;SDS011;25188;51.958;5.842;2024-01-15T10:46:03;5.37;;;1.60;;
39020;SDS011;25188;51.958;5.842;2024-01-15T10:48:29;5.60;;;1.57;;
39020;SDS011;25188;51.958;5.842;2024-01-15T10:50:59;5.03;;;2.10;;
39020;SDS011;25188;51.958;5.842;2024-01-15T10:53:24;4.53;;;1.93;;
39020;SDS011;25188;51.958;5.842;2024-01-15T10:55:50;7.97;;;3.07;;
39020;SDS011;25188;51.958;5.842;2024-01-15T10:58:19;5.53;;;2.10;;
39020;SDS011;25188;51.958;5.842;2024-01-15T11:00:45;6.43;;;2.30;;
39020;SDS011;25188;51.958;5.842;2024-01-15T11:03:11;4.23;;;1.63;;
39020;SDS011;25188;51.958;5.842;2024-01-15T11:05:38;7.73;;;2.00;;
39020;SDS011;25188;51.958;5.842;2024-01-15T11:08:06;5.57;;;2.00;;
39020;SDS011;25188;51.958;5.842;2024-01-15T11:10:38;7.67;;;1.50;;
39020;SDS011;25188;51.958;5.842;2024-01-15T11:13:10;8.10;;;1.63;;
39020;SDS011;25188;51.958;5.842;2024-01-15T11:16:01;11.27;;;1.83;;
39020;SDS011;25188;51.958;5.842;2024-01-15T11:18:39;5.77;;;1.50;;
39020;SDS011;25188;51.958;5.842;2024-01-15T11:29:07;6.40;;;1.52;;
39020;SDS011;25188;51.958;5.842;2024-01-15T11:34:06;5.67;;;1.30;;
39020;SDS011;25188;51.958;5.842;2024-01-15T11:42:00;5.70;;;1.27;;
39020;SDS011;25188;51.958;5.842;2024-01-15T11:44:28;7.27;;;1.50;;
39020;SDS011;25188;51.958;5.842;2024-01-15T11:52:05;7.23;;;1.00;;
39020;SDS011;25188;51.958;5.842;2024-01-15T11:54:32;4.97;;;0.90;;
39020;SDS011;25188;51.958;5.842;2024-01-15T11:57:04;3.47;;;0.70;;
39020;SDS011;25188;51.958;5.842;2024-01-15T11:59:35;4.20;;;1.10;;
39020;SDS011;25188;51.958;5.842;2024-01-15T12:02:01;7.73;;;0.90;;
39020;SDS011;25188;51.958;5.842;2024-01-15T12:04:28;9.27;;;1.03;;
39020;SDS011;25188;51.958;5.842;2024-01-15T12:06:53;10.17;;;1.17;;
39020;SDS011;25188;51.958;5.842;2024-01-15T12:09:19;7.33;;;0.93;;
39020;SDS011;25188;51.958;5.842;2024-01-15T12:11:46;4.40;;;0.90;;
39020;SDS011;25188;51.958;5.842;2024-01-15T12:14:20;3.23;;;0.63;;
39020;SDS011;25188;51.958;5.842;2024-01-15T12:16:46;7.77;;;0.93;;
39020;SDS011;25188;51.958;5.842;2024-01-15T12:19:14;3.60;;;0.90;;
39020;SDS011;25188;51.958;5.842;2024-01-15T12:21:40;5.57;;;0.80;;
39020;SDS011;25188;51.958;5.842;2024-01-15T12:24:09;8.23;;;0.70;;
39020;SDS011;25188;51.958;5.842;2024-01-15T12:26:34;5.80;;;0.83;;
39020;SDS011;25188;51.958;5.842;2024-01-15T12:29:06;3.87;;;0.60;;
39020;SDS011;25188;51.958;5.842;2024-01-15T12:31:32;3.87;;;0.60;;
39020;SDS011;25188;51.958;5.842;2024-01-15T12:33:57;6.53;;;0.70;;
39020;SDS011;25188;51.958;5.842;2024-01-15T12:36:23;6.53;;;0.93;;
39020;SDS011;25188;51.958;5.842;2024-01-15T12:38:49;5.33;;;0.73;;
39020;SDS011;25188;51.958;5.842;2024-01-15T12:41:14;10.70;;;0.97;;
39020;SDS011;25188;51.958;5.842;2024-01-15T12:43:40;5.70;;;0.83;;
39020;SDS011;25188;51.958;5.842;2024-01-15T12:46:06;8.83;;;1.13;;
39020;SDS011;25188;51.958;5.842;2024-01-15T12:48:32;5.30;;;0.60;;
39020;SDS011;25188;51.958;5.842;2024-01-15T12:50:58;6.17;;;0.70;;
39020;SDS011;25188;51.958;5.842;2024-01-15T12:53:23;7.30;;;0.80;;
39020;SDS011;25188;51.958;5.842;2024-01-15T12:55:49;2.73;;;0.60;;
39020;SDS011;25188;51.958;5.842;2024-01-15T12:58:14;4.50;;;0.63;;
39020;SDS011;25188;51.958;5.842;2024-01-15T13:00:40;3.13;;;0.50;;
39020;SDS011;25188;51.958;5.842;2024-01-15T13:03:06;7.20;;;0.63;;
39020;SDS011;25188;51.958;5.842;2024-01-15T13:05:32;5.60;;;0.63;;
39020;SDS011;25188;51.958;5.842;2024-01-15T13:07:59;6.03;;;0.80;;
39020;SDS011;25188;51.958;5.842;2024-01-15T13:10:24;4.67;;;0.60;;
39020;SDS011;25188;51.958;5.842;2024-01-15T13:12:50;7.17;;;0.87;;
39020;SDS011;25188;51.958;5.842;2024-01-15T13:15:16;7.03;;;0.80;;
39020;SDS011;25188;51.958;5.842;2024-01-15T13:17:42;6.33;;;0.87;;
39020;SDS011;25188;51.958;5.842;2024-01-15T13:20:10;1.30;;;0.43;;
39020;SDS011;25188;51.958;5.842;2024-01-15T13:22:37;4.17;;;0.60;;
39020;SDS011;25188;51.958;5.842;2024-01-15T13:25:04;4.30;;;0.73;;
39020;SDS011;25188;51.958;5.842;2024-01-15T13:27:32;3.33;;;1.00;;
39020;SDS011;25188;51.958;5.842;2024-01-15T13:30:00;4.60;;;0.60;;
39020;SDS011;25188;51.958;5.842;2024-01-15T13:32:26;4.70;;;0.60;;
39020;SDS011;25188;51.958;5.842;2024-01-15T13:34:54;7.03;;;0.70;;
39020;SDS011;25188;51.958;5.842;2024-01-15T13:37:22;4.23;;;0.90;;
39020;SDS011;25188;51.958;5.842;2024-01-15T13:39:50;3.83;;;0.87;;
39020;SDS011;25188;51.958;5.842;2024-01-15T13:42:17;5.93;;;0.80;;
39020;SDS011;25188;51.958;5.842;2024-01-15T13:44:43;2.47;;;0.60;;
39020;SDS011;25188;51.958;5.842;2024-01-15T13:47:08;4.33;;;0.80;;
39020;SDS011;25188;51.958;5.842;2024-01-15T13:49:35;2.77;;;0.50;;
39020;SDS011;25188;51.958;5.842;2024-01-15T13:52:01;3.17;;;0.80;;
39020;SDS011;25188;51.958;5.842;2024-01-15T13:54:29;6.07;;;0.70;;
39020;SDS011;25188;51.958;5.842;2024-01-15T13:56:55;5.07;;;0.80;;
39020;SDS011;25188;51.958;5.842;2024-01-15T13:59:20;3.50;;;0.60;;
39020;SDS011;25188;51.958;5.842;2024-01-15T14:01:46;5.93;;;0.83;;
39020;SDS011;25188;51.958;5.842;2024-01-15T14:04:12;6.93;;;1.10;;
39020;SDS011;25188;51.958;5.842;2024-01-15T14:06:38;3.73;;;0.70;;
39020;SDS011;25188;51.958;5.842;2024-01-15T14:09:04;5.43;;;0.80;;
39020;SDS011;25188;51.958;5.842;2024-01-15T14:11:30;8.33;;;0.90;;
39020;SDS011;25188;51.958;5.842;2024-01-15T14:13:56;5.17;;;0.53;;
39020;SDS011;25188;51.958;5.842;2024-01-15T14:16:22;6.80;;;0.80;;
39020;SDS011;25188;51.958;5.842;2024-01-15T14:18:49;4.67;;;0.70;;
39020;SDS011;25188;51.958;5.842;2024-01-15T14:21:15;7.93;;;1.40;;
39020;SDS011;25188;51.958;5.842;2024-01-15T14:23:40;5.40;;;0.67;;
39020;SDS011;25188;51.958;5.842;2024-01-15T14:26:06;6.87;;;0.90;;
39020;SDS011;25188;51.958;5.842;2024-01-15T14:28:32;5.50;;;1.23;;
39020;SDS011;25188;51.958;5.842;2024-01-15T14:30:58;4.87;;;0.80;;
39020;SDS011;25188;51.958;5.842;2024-01-15T14:33:25;8.83;;;1.00;;
39020;SDS011;25188;51.958;5.842;2024-01-15T14:35:51;4.60;;;0.80;;
39020;SDS011;25188;51.958;5.842;2024-01-15T14:38:17;3.90;;;0.77;;
39020;SDS011;25188;51.958;5.842;2024-01-15T14:40:43;7.83;;;1.00;;
39020;SDS011;25188;51.958;5.842;2024-01-15T14:43:09;7.03;;;0.80;;
39020;SDS011;25188;51.958;5.842;2024-01-15T14:45:35;2.13;;;0.50;;
39020;SDS011;25188;51.958;5.842;2024-01-15T14:48:01;5.10;;;0.80;;
39020;SDS011;25188;51.958;5.842;2024-01-15T14:50:27;4.73;;;0.73;;
39020;SDS011;25188;51.958;5.842;2024-01-15T14:52:53;5.10;;;0.80;;
39020;SDS011;25188;51.958;5.842;2024-01-15T14:55:18;6.43;;;0.83;;
39020;SDS011;25188;51.958;5.842;2024-01-15T14:57:44;3.97;;;0.70;;
39020;SDS011;25188;51.958;5.842;2024-01-15T15:00:10;5.97;;;0.97;;